createdAt,value
2023-04-26T00:01:05.760Z,3.22
2023-04-26T00:03:33.015Z,3.22
2023-04-26T00:06:06.448Z,3.80
2023-04-26T00:08:32.911Z,3.03
2023-04-26T00:10:59.297Z,2.63
2023-04-26T00:13:25.829Z,3.17
2023-04-26T00:15:52.236Z,2.78
2023-04-26T00:18:18.798Z,2.80
2023-04-26T00:20:45.502Z,3.20
2023-04-26T00:23:11.985Z,3.33
2023-04-26T00:25:38.526Z,3.05
2023-04-26T00:28:05.005Z,3.30
2023-04-26T00:30:32.030Z,2.75
2023-04-26T00:32:58.350Z,3.05
2023-04-26T00:35:24.849Z,3.03
2023-04-26T00:37:51.211Z,3.00
2023-04-26T00:40:17.706Z,2.97
2023-04-26T00:42:44.070Z,2.70
2023-04-26T00:45:10.627Z,3.00
2023-04-26T00:47:37.512Z,2.53
2023-04-26T00:50:04.680Z,2.65
2023-04-26T00:52:31.852Z,3.50
2023-04-26T00:54:58.355Z,2.95
2023-04-26T00:57:25.996Z,3.17
2023-04-26T00:59:52.325Z,3.50
2023-04-26T01:02:18.994Z,3.08
2023-04-26T01:04:45.610Z,3.38
2023-04-26T01:07:12.110Z,3.30
2023-04-26T01:09:39.277Z,3.00
2023-04-26T01:12:07.446Z,3.22
2023-04-26T01:17:01.423Z,2.97
2023-04-26T01:19:27.952Z,2.90
2023-04-26T01:21:54.356Z,2.83
2023-04-26T01:24:21.003Z,3.10
2023-04-26T01:26:47.444Z,3.28
2023-04-26T01:29:15.684Z,3.10
2023-04-26T01:31:42.397Z,3.53
2023-04-26T01:34:08.841Z,3.35
2023-04-26T01:36:35.154Z,3.50
2023-04-26T01:39:01.628Z,3.50
2023-04-26T01:41:28.031Z,4.15
2023-04-26T01:43:55.429Z,3.17
2023-04-26T01:46:22.313Z,2.80
2023-04-26T01:48:48.701Z,3.00
2023-04-26T01:51:15.022Z,3.17
2023-04-26T01:53:41.402Z,2.65
2023-04-26T01:56:07.793Z,3.22
2023-04-26T01:58:34.108Z,3.25
2023-04-26T02:01:08.565Z,3.22
2023-04-26T02:03:35.677Z,3.08
2023-04-26T02:06:02.457Z,2.85
2023-04-26T02:08:28.983Z,3.00
2023-04-26T02:10:55.726Z,3.17
2023-04-26T02:13:22.206Z,2.65
2023-04-26T02:15:49.691Z,2.83
2023-04-26T02:18:16.961Z,2.70
2023-04-26T02:20:44.742Z,3.28
2023-04-26T02:23:11.816Z,3.25
2023-04-26T02:25:38.901Z,2.83
2023-04-26T02:28:06.035Z,3.03
2023-04-26T02:30:32.558Z,3.05
2023-04-26T02:32:59.284Z,2.38
2023-04-26T02:35:26.655Z,2.80
2023-04-26T02:37:53.124Z,2.47
2023-04-26T02:40:19.658Z,2.72
2023-04-26T02:42:46.021Z,2.90
2023-04-26T02:45:12.915Z,3.15
2023-04-26T02:47:39.434Z,3.08
2023-04-26T02:50:10.285Z,3.05
2023-04-26T02:52:36.971Z,3.40
2023-04-26T02:55:04.431Z,3.28
2023-04-26T02:57:31.673Z,3.67
2023-04-26T02:59:58.383Z,3.00
2023-04-26T03:02:25.154Z,3.03
2023-04-26T03:04:51.685Z,2.58
2023-04-26T03:07:18.296Z,3.17
2023-04-26T03:09:44.693Z,3.00
2023-04-26T03:12:11.699Z,3.00
2023-04-26T03:14:38.079Z,2.88
2023-04-26T03:17:04.401Z,3.65
2023-04-26T03:19:30.794Z,2.95
2023-04-26T03:21:57.170Z,3.42
2023-04-26T03:24:23.667Z,3.60
2023-04-26T03:26:50.178Z,3.30
2023-04-26T03:29:17.117Z,3.33
2023-04-26T03:31:43.738Z,3.33
2023-04-26T03:34:10.274Z,3.28
2023-04-26T03:36:36.649Z,4.00
2023-04-26T03:39:03.608Z,3.25
2023-04-26T03:41:29.927Z,3.22
2023-04-26T03:43:56.391Z,3.50
2023-04-26T03:46:22.924Z,4.10
2023-04-26T03:48:49.652Z,3.58
2023-04-26T03:51:16.309Z,3.38
2023-04-26T03:53:42.656Z,3.72
2023-04-26T03:56:09.034Z,4.20
2023-04-26T03:58:36.078Z,4.03
2023-04-26T04:01:02.434Z,4.00
2023-04-26T04:03:30.516Z,3.88
2023-04-26T04:08:23.401Z,3.67
2023-04-26T04:10:50.029Z,4.40
2023-04-26T04:13:16.596Z,3.95
2023-04-26T04:15:42.974Z,3.90
2023-04-26T04:18:09.438Z,5.25
2023-04-26T04:20:36.296Z,4.75
2023-04-26T04:23:04.337Z,5.38
2023-04-26T04:25:30.958Z,4.95
2023-04-26T04:27:58.273Z,4.45
2023-04-26T04:30:26.181Z,4.35
2023-04-26T04:32:52.598Z,4.38
2023-04-26T04:35:19.025Z,4.40
2023-04-26T04:37:45.582Z,4.15
2023-04-26T04:40:13.405Z,5.43
2023-04-26T04:42:39.861Z,4.85
2023-04-26T04:45:06.942Z,4.82
2023-04-26T04:47:34.002Z,4.80
2023-04-26T04:50:00.440Z,4.88
2023-04-26T04:52:27.019Z,4.35
2023-04-26T04:54:53.383Z,4.63
2023-04-26T04:57:20.173Z,4.53
2023-04-26T04:59:46.787Z,4.40
2023-04-26T05:02:13.411Z,5.00
2023-04-26T05:04:40.047Z,4.97
2023-04-26T05:07:06.915Z,4.82
2023-04-26T05:09:33.531Z,4.82
2023-04-26T05:11:59.882Z,4.82
2023-04-26T05:14:26.404Z,5.15
2023-04-26T05:16:52.895Z,5.32
2023-04-26T05:19:19.334Z,5.32
2023-04-26T05:21:45.752Z,4.93
2023-04-26T05:24:12.139Z,4.28
2023-04-26T05:26:38.643Z,4.53
2023-04-26T05:29:05.035Z,4.93
2023-04-26T05:31:31.754Z,4.47
2023-04-26T05:33:58.201Z,4.57
2023-04-26T05:36:24.611Z,3.83
2023-04-26T05:38:51.016Z,3.97
2023-04-26T05:41:17.338Z,4.03
2023-04-26T05:43:43.703Z,4.15
2023-04-26T05:46:10.187Z,3.35
2023-04-26T05:48:36.618Z,2.78
2023-04-26T05:51:02.998Z,2.88
2023-04-26T05:53:29.474Z,3.00
2023-04-26T05:55:55.866Z,3.22
2023-04-26T05:58:22.273Z,3.25
2023-04-26T06:00:48.784Z,3.30
2023-04-26T06:03:15.531Z,3.00
2023-04-26T06:05:42.205Z,3.10
2023-04-26T06:08:09.087Z,3.47
2023-04-26T06:10:37.597Z,3.08
2023-04-26T06:13:04.407Z,2.70
2023-04-26T06:15:31.880Z,3.55
2023-04-26T06:17:58.350Z,2.80
2023-04-26T06:20:24.785Z,2.50
2023-04-26T06:22:51.090Z,3.05
2023-04-26T06:25:17.513Z,2.33
2023-04-26T06:27:43.941Z,2.38
2023-04-26T06:30:10.624Z,2.70
2023-04-26T06:32:38.935Z,2.75
2023-04-26T06:35:05.607Z,2.30
2023-04-26T06:37:31.973Z,2.38
2023-04-26T06:39:58.493Z,2.20
2023-04-26T06:42:24.910Z,2.17
2023-04-26T06:44:51.389Z,1.52
2023-04-26T06:47:17.783Z,1.90
2023-04-26T06:49:44.254Z,2.33
2023-04-26T06:52:10.685Z,2.13
2023-04-26T06:54:45.868Z,2.13
2023-04-26T06:57:16.454Z,2.30
2023-04-26T06:59:42.777Z,2.47
2023-04-26T07:02:09.382Z,2.60
2023-04-26T07:04:36.828Z,1.77
2023-04-26T07:07:03.454Z,2.10
2023-04-26T07:09:29.825Z,2.22
2023-04-26T07:11:56.385Z,2.22
2023-04-26T07:14:24.576Z,1.85
2023-04-26T07:16:51.190Z,2.15
2023-04-26T07:19:17.945Z,2.40
2023-04-26T07:21:44.316Z,2.20
2023-04-26T07:24:10.803Z,2.25
2023-04-26T07:26:37.292Z,1.83
2023-04-26T07:29:03.956Z,1.90
2023-04-26T07:31:31.899Z,2.33
2023-04-26T07:33:58.634Z,2.00
2023-04-26T07:36:25.219Z,2.03
2023-04-26T07:38:51.907Z,1.65
2023-04-26T07:41:18.289Z,1.92
2023-04-26T07:43:44.733Z,1.95
2023-04-26T07:46:11.104Z,1.63
2023-04-26T07:48:37.560Z,1.90
2023-04-26T07:51:11.651Z,1.77
2023-04-26T07:53:41.578Z,1.60
2023-04-26T07:56:08.548Z,1.60
2023-04-26T07:58:36.292Z,1.50
2023-04-26T08:01:03.720Z,1.38
2023-04-26T08:03:30.365Z,1.67
2023-04-26T08:05:58.934Z,1.50
2023-04-26T08:08:26.938Z,1.60
2023-04-26T08:10:53.776Z,1.50
2023-04-26T08:13:20.394Z,1.50
2023-04-26T08:15:47.516Z,1.60
2023-04-26T08:18:13.841Z,1.80
2023-04-26T08:20:40.241Z,1.95
2023-04-26T08:23:06.595Z,1.88
2023-04-26T08:25:34.821Z,1.45
2023-04-26T08:28:01.957Z,1.73
2023-04-26T08:30:28.312Z,1.30
2023-04-26T08:32:54.691Z,1.73
2023-04-26T08:35:22.253Z,1.83
2023-04-26T08:37:48.582Z,1.50
2023-04-26T08:40:22.155Z,1.50
2023-04-26T08:42:48.870Z,1.90
2023-04-26T08:45:16.242Z,1.60
2023-04-26T08:48:04.642Z,1.63
2023-04-26T08:50:33.559Z,1.60
2023-04-26T08:52:59.961Z,1.55
2023-04-26T08:55:27.087Z,1.67
2023-04-26T08:57:54.144Z,1.70
2023-04-26T09:00:21.442Z,2.03
2023-04-26T09:02:51.456Z,1.90
2023-04-26T09:05:23.506Z,2.00
2023-04-26T09:07:51.006Z,1.90
2023-04-26T09:10:22.281Z,1.92
2023-04-26T09:12:53.406Z,1.73
2023-04-26T09:15:22.546Z,2.10
2023-04-26T09:23:12.310Z,1.73
2023-04-26T09:25:38.698Z,1.85
2023-04-26T09:28:19.824Z,1.77
2023-04-26T09:30:46.243Z,1.73
2023-04-26T09:33:12.773Z,1.50
2023-04-26T09:35:41.234Z,1.55
2023-04-26T09:38:15.227Z,1.40
2023-04-26T09:40:46.991Z,1.45
2023-04-26T09:43:16.050Z,1.50
2023-04-26T09:45:51.213Z,1.50
2023-04-26T09:48:34.678Z,1.45
2023-04-26T09:51:03.986Z,1.73
2023-04-26T09:53:38.311Z,1.70
2023-04-26T09:56:11.584Z,1.60
2023-04-26T09:59:00.488Z,1.67
2023-04-26T10:01:31.280Z,1.70
2023-04-26T10:04:00.754Z,1.60
2023-04-26T10:06:28.261Z,1.65
2023-04-26T10:08:55.246Z,1.35
2023-04-26T10:11:22.463Z,1.48
2023-04-26T10:13:51.649Z,1.38
2023-04-26T10:16:20.667Z,1.67
2023-04-26T10:18:48.055Z,1.67
2023-04-26T10:21:22.520Z,1.50
2023-04-26T10:23:49.570Z,1.60
2023-04-26T10:26:54.681Z,1.60
2023-04-26T10:29:22.112Z,1.67
2023-04-26T10:32:05.369Z,1.35
2023-04-26T10:34:34.038Z,1.35
2023-04-26T10:37:10.881Z,1.48
2023-04-26T10:39:39.221Z,1.70
2023-04-26T10:42:24.074Z,1.95
2023-04-26T10:44:52.646Z,1.80
2023-04-26T10:47:32.693Z,1.60
2023-04-26T10:50:05.675Z,1.70
2023-04-26T10:52:32.708Z,1.52
2023-04-26T10:54:59.795Z,1.63
2023-04-26T10:57:52.596Z,1.45
2023-04-26T11:00:27.910Z,1.50
2023-04-26T11:02:58.352Z,1.88
2023-04-26T11:05:54.419Z,1.73
2023-04-26T11:08:25.486Z,1.58
2023-04-26T11:11:03.324Z,1.60
2023-04-26T11:13:31.099Z,1.70
2023-04-26T11:16:05.504Z,1.65
2023-04-26T11:20:59.500Z,1.83
2023-04-26T11:23:28.112Z,1.48
2023-04-26T11:25:57.577Z,1.42
2023-04-26T11:28:23.951Z,1.60
2023-04-26T11:30:53.260Z,1.60
2023-04-26T11:33:23.003Z,1.52
2023-04-26T11:35:54.949Z,1.80
2023-04-26T11:38:25.628Z,1.52
2023-04-26T11:41:03.069Z,1.70
2023-04-26T11:43:32.505Z,1.85
2023-04-26T11:46:02.567Z,1.65
2023-04-26T11:48:30.293Z,1.98
2023-04-26T11:50:57.667Z,1.80
2023-04-26T11:53:24.628Z,1.70
2023-04-26T11:55:51.971Z,1.83
2023-04-26T11:58:18.351Z,2.00
2023-04-26T12:01:01.821Z,1.60
2023-04-26T12:03:35.182Z,1.80
2023-04-26T12:06:02.153Z,1.80
2023-04-26T12:08:28.658Z,2.10
2023-04-26T12:10:59.956Z,2.00
2023-04-26T12:13:26.666Z,1.85
2023-04-26T12:15:53.156Z,2.13
2023-04-26T12:18:19.934Z,1.90
2023-04-26T12:20:49.168Z,2.05
2023-04-26T12:23:17.213Z,1.65
2023-04-26T12:25:57.356Z,2.10
2023-04-26T12:28:24.628Z,1.95
2023-04-26T12:30:51.569Z,1.92
2023-04-26T12:33:22.783Z,2.00
2023-04-26T12:35:50.237Z,1.90
2023-04-26T12:38:16.885Z,1.70
2023-04-26T12:40:46.034Z,1.92
2023-04-26T12:43:12.783Z,1.73
2023-04-26T12:45:39.204Z,2.10
2023-04-26T12:48:06.314Z,1.90
2023-04-26T12:50:32.729Z,1.90
2023-04-26T12:52:59.105Z,1.92
2023-04-26T12:55:25.719Z,2.08
2023-04-26T12:57:52.160Z,1.88
2023-04-26T13:00:18.739Z,1.90
2023-04-26T13:02:45.263Z,1.80
2023-04-26T13:05:12.297Z,2.00
2023-04-26T13:07:40.505Z,1.60
2023-04-26T13:10:08.578Z,2.05
2023-04-26T13:12:36.069Z,1.90
2023-04-26T13:15:02.448Z,1.95
2023-04-26T13:17:28.902Z,1.85
2023-04-26T13:19:55.440Z,1.70
2023-04-26T13:22:22.135Z,1.63
2023-04-26T13:24:48.466Z,1.60
2023-04-26T13:27:15.075Z,1.77
2023-04-26T13:29:41.936Z,1.70
2023-04-26T13:32:08.573Z,1.92
2023-04-26T13:34:35.855Z,1.67
2023-04-26T13:37:03.920Z,1.60
2023-04-26T13:39:31.133Z,1.50
2023-04-26T13:41:59.232Z,1.52
2023-04-26T13:44:26.861Z,1.52
2023-04-26T13:49:22.799Z,1.88
2023-04-26T13:51:49.235Z,1.67
2023-04-26T13:54:15.557Z,1.77
2023-04-26T13:56:42.036Z,1.80
2023-04-26T13:59:08.437Z,1.92
2023-04-26T14:01:38.556Z,1.60
2023-04-26T14:04:05.548Z,1.70
2023-04-26T14:06:32.857Z,1.80
2023-04-26T14:08:59.332Z,1.90
2023-04-26T14:11:25.977Z,1.92
2023-04-26T14:13:55.954Z,1.90
2023-04-26T14:16:23.832Z,2.10
2023-04-26T14:18:50.549Z,1.60
2023-04-26T14:21:17.402Z,1.67
2023-04-26T14:23:43.968Z,1.80
2023-04-26T14:26:10.824Z,1.73
2023-04-26T14:28:37.424Z,1.98
2023-04-26T14:31:03.843Z,2.00
2023-04-26T14:33:30.548Z,1.73
2023-04-26T14:35:57.084Z,2.22
2023-04-26T14:38:23.488Z,2.00
2023-04-26T14:40:49.820Z,1.90
2023-04-26T14:43:16.442Z,1.60
2023-04-26T14:45:44.861Z,1.83
2023-04-26T14:48:12.366Z,1.88
2023-04-26T14:50:38.847Z,2.10
2023-04-26T14:53:05.262Z,1.58
2023-04-26T14:55:32.341Z,1.50
2023-04-26T14:57:58.785Z,1.70
2023-04-26T15:00:25.476Z,1.65
2023-04-26T15:02:51.931Z,1.42
2023-04-26T15:05:18.562Z,1.50
2023-04-26T15:07:44.923Z,1.67
2023-04-26T15:10:11.372Z,1.73
2023-04-26T15:12:37.896Z,1.55
2023-04-26T15:15:04.676Z,1.65
2023-04-26T15:17:34.226Z,1.55
2023-04-26T15:20:01.258Z,1.60
2023-04-26T15:22:27.889Z,1.40
2023-04-26T15:24:54.326Z,1.80
2023-04-26T15:27:20.697Z,1.75
2023-04-26T15:29:47.060Z,1.50
2023-04-26T15:32:13.387Z,1.77
2023-04-26T15:34:43.290Z,2.00
2023-04-26T15:37:10.526Z,1.90
2023-04-26T15:39:37.347Z,2.33
2023-04-26T15:42:05.660Z,1.73
2023-04-26T15:44:32.497Z,1.92
2023-04-26T15:47:01.374Z,2.00
2023-04-26T15:49:28.128Z,1.88
2023-04-26T15:51:54.667Z,1.80
2023-04-26T15:54:21.719Z,1.77
2023-04-26T15:56:48.507Z,1.83
2023-04-26T15:59:15.201Z,1.58
2023-04-26T16:01:41.821Z,1.80
2023-04-26T16:04:08.799Z,1.70
2023-04-26T16:06:35.549Z,2.00
2023-04-26T16:09:17.192Z,1.50
2023-04-26T16:11:50.878Z,1.63
2023-04-26T16:14:17.264Z,1.83
2023-04-26T16:16:45.739Z,1.63
2023-04-26T16:19:12.335Z,1.70
2023-04-26T16:21:40.151Z,1.80
2023-04-26T16:24:09.205Z,1.52
2023-04-26T16:26:36.057Z,1.60
2023-04-26T16:29:04.542Z,1.90
2023-04-26T16:31:32.428Z,1.90
2023-04-26T16:33:59.157Z,1.73
2023-04-26T16:36:27.129Z,2.00
2023-04-26T16:38:54.440Z,1.70
2023-04-26T16:41:20.961Z,2.03
2023-04-26T16:43:47.290Z,1.70
2023-04-26T16:46:13.718Z,1.77
2023-04-26T16:48:40.476Z,1.88
2023-04-26T16:51:07.981Z,2.47
2023-04-26T16:56:01.509Z,3.75
2023-04-26T16:58:28.091Z,2.70
2023-04-26T17:00:54.534Z,2.08
2023-04-26T17:03:21.608Z,2.63
2023-04-26T17:05:48.805Z,2.33
2023-04-26T17:08:19.232Z,3.10
2023-04-26T17:10:46.659Z,2.53
2023-04-26T17:13:13.316Z,1.90
2023-04-26T17:15:40.920Z,1.83
2023-04-26T17:18:07.710Z,1.80
2023-04-26T17:20:34.428Z,1.63
2023-04-26T17:23:01.827Z,2.85
2023-04-26T17:25:28.751Z,1.95
2023-04-26T17:27:55.384Z,1.80
2023-04-26T17:30:22.808Z,1.88
2023-04-26T17:32:49.185Z,2.10
2023-04-26T17:35:15.755Z,1.90
2023-04-26T17:37:42.274Z,2.00
2023-04-26T17:40:09.088Z,1.75
2023-04-26T17:42:35.526Z,2.95
2023-04-26T17:45:01.924Z,2.30
2023-04-26T17:47:28.820Z,2.92
2023-04-26T17:49:55.343Z,2.25
2023-04-26T17:52:21.777Z,4.47
2023-04-26T17:54:48.389Z,5.05
2023-04-26T17:57:17.715Z,4.50
2023-04-26T17:59:44.374Z,2.80
2023-04-26T18:02:10.920Z,2.83
2023-04-26T18:04:37.656Z,3.75
2023-04-26T18:07:04.407Z,1.77
2023-04-26T18:09:31.405Z,2.22
2023-04-26T18:11:57.727Z,1.95
2023-04-26T18:14:24.989Z,1.98
2023-04-26T18:16:51.554Z,1.88
2023-04-26T18:19:18.050Z,1.40
2023-04-26T18:21:45.121Z,1.90
2023-04-26T18:24:11.499Z,2.95
2023-04-26T18:26:39.224Z,2.45
2023-04-26T18:29:07.404Z,2.28
2023-04-26T18:31:34.015Z,2.20
2023-04-26T18:34:00.364Z,2.47
2023-04-26T18:36:27.168Z,2.38
2023-04-26T18:38:53.658Z,2.30
2023-04-26T18:41:20.005Z,2.22
2023-04-26T18:43:46.335Z,2.38
2023-04-26T18:46:12.699Z,1.77
2023-04-26T18:48:39.185Z,2.42
2023-04-26T18:51:05.576Z,2.70
2023-04-26T18:53:31.964Z,2.13
2023-04-26T18:55:58.325Z,2.08
2023-04-26T18:58:24.705Z,2.75
2023-04-26T19:00:51.158Z,1.83
2023-04-26T19:03:18.521Z,2.40
2023-04-26T19:05:45.489Z,2.00
2023-04-26T19:08:11.825Z,2.30
2023-04-26T19:10:38.198Z,2.20
2023-04-26T19:13:04.621Z,2.28
2023-04-26T19:15:31.041Z,2.17
2023-04-26T19:17:57.473Z,2.10
2023-04-26T19:20:25.836Z,2.33
2023-04-26T19:22:52.487Z,2.28
2023-04-26T19:25:23.089Z,2.10
2023-04-26T19:27:50.472Z,2.20
2023-04-26T19:30:16.862Z,2.25
2023-04-26T19:32:43.317Z,2.10
2023-04-26T19:35:09.901Z,1.98
2023-04-26T19:37:36.457Z,2.05
2023-04-26T19:40:05.931Z,2.10
2023-04-26T19:42:32.352Z,2.00
2023-04-26T19:44:58.806Z,2.35
2023-04-26T19:47:25.183Z,2.10
2023-04-26T19:49:53.015Z,1.92
2023-04-26T19:52:19.811Z,2.05
2023-04-26T19:54:46.171Z,1.73
2023-04-26T19:57:12.500Z,1.73
2023-04-26T19:59:38.867Z,1.90
2023-04-26T20:02:06.687Z,1.85
2023-04-26T20:04:33.325Z,2.03
2023-04-26T20:06:59.728Z,2.30
2023-04-26T20:09:26.063Z,2.40
2023-04-26T20:11:52.788Z,2.67
2023-04-26T20:14:19.164Z,2.63
2023-04-26T20:16:45.531Z,3.17
2023-04-26T20:19:12.108Z,4.25
2023-04-26T20:21:38.446Z,4.80
2023-04-26T20:24:05.152Z,5.47
2023-04-26T20:26:31.485Z,4.25
2023-04-26T20:28:57.887Z,4.60
2023-04-26T20:31:24.366Z,3.75
2023-04-26T20:33:51.208Z,4.15
2023-04-26T20:36:17.744Z,4.13
2023-04-26T20:38:44.195Z,3.78
2023-04-26T20:41:10.614Z,4.60
2023-04-26T20:43:36.940Z,3.78
2023-04-26T20:46:03.392Z,3.92
2023-04-26T20:48:29.875Z,3.78
2023-04-26T20:50:58.535Z,3.80
2023-04-26T20:53:24.994Z,3.60
2023-04-26T20:55:52.949Z,2.88
2023-04-26T21:00:48.985Z,3.05
2023-04-26T21:03:15.520Z,3.17
2023-04-26T21:05:41.943Z,2.92
2023-04-26T21:08:08.320Z,2.72
2023-04-26T21:10:34.716Z,3.00
2023-04-26T21:13:01.154Z,3.25
2023-04-26T21:15:27.522Z,2.70
2023-04-26T21:17:54.000Z,3.08
2023-04-26T21:20:20.547Z,2.58
2023-04-26T21:22:46.934Z,3.08
2023-04-26T21:25:16.832Z,3.00
2023-04-26T21:27:43.309Z,4.03
2023-04-26T21:30:11.205Z,4.22
2023-04-26T21:32:40.192Z,4.10
2023-04-26T21:35:07.606Z,4.13
2023-04-26T21:37:33.927Z,4.25
2023-04-26T21:40:00.421Z,4.18
2023-04-26T21:42:26.769Z,4.63
2023-04-26T21:44:53.083Z,4.20
2023-04-26T21:47:19.809Z,3.90
2023-04-26T21:49:46.152Z,3.88
2023-04-26T21:52:12.645Z,5.10
2023-04-26T21:54:39.269Z,5.90
2023-04-26T21:57:06.708Z,5.35
2023-04-26T21:59:33.775Z,4.40
2023-04-26T22:02:00.281Z,5.35
2023-04-26T22:04:26.960Z,4.03
2023-04-26T22:06:53.469Z,4.90
2023-04-26T22:09:20.952Z,5.18
2023-04-26T22:11:47.350Z,4.82
2023-04-26T22:14:13.765Z,4.63
2023-04-26T22:16:40.215Z,4.65
2023-04-26T22:19:06.644Z,5.40
2023-04-26T22:21:32.957Z,5.80
2023-04-26T22:23:59.681Z,6.45
2023-04-26T22:26:26.197Z,6.20
2023-04-26T22:28:52.566Z,6.15
2023-04-26T22:31:18.896Z,7.05
2023-04-26T22:33:45.393Z,6.68
2023-04-26T22:36:12.695Z,6.65
2023-04-26T22:38:39.616Z,6.72
2023-04-26T22:41:07.263Z,6.50
2023-04-26T22:43:34.660Z,6.63
2023-04-26T22:46:01.052Z,6.57
2023-04-26T22:48:27.848Z,7.43
2023-04-26T22:50:54.262Z,7.95
2023-04-26T22:53:21.480Z,7.55
2023-04-26T22:55:47.911Z,6.47
2023-04-26T22:58:14.352Z,6.18
2023-04-26T23:00:40.690Z,5.45
2023-04-26T23:03:07.047Z,5.60
2023-04-26T23:05:33.465Z,6.60
2023-04-26T23:07:59.774Z,6.18
2023-04-26T23:10:26.292Z,6.53
2023-04-26T23:12:52.957Z,6.13
2023-04-26T23:15:19.518Z,5.90
2023-04-26T23:17:46.495Z,6.20
2023-04-26T23:20:12.968Z,6.13
2023-04-26T23:22:43.250Z,5.72
2023-04-26T23:25:10.520Z,5.88
2023-04-26T23:27:37.699Z,6.00
2023-04-26T23:30:04.628Z,6.18
2023-04-26T23:32:31.035Z,5.85
2023-04-26T23:34:57.442Z,6.57
2023-04-26T23:37:23.905Z,6.40
2023-04-26T23:39:50.334Z,5.78
2023-04-26T23:42:16.691Z,7.00
2023-04-26T23:44:43.031Z,6.65
2023-04-26T23:47:09.368Z,5.80
2023-04-26T23:49:35.686Z,5.75
2023-04-26T23:52:02.088Z,4.47
2023-04-26T23:54:28.431Z,5.70
2023-04-26T23:56:54.753Z,5.93
2023-04-26T23:59:21.167Z,5.00
